Nearby METAR Reports

 

EGMC - Southend-On-Sea, United Kingdom
Distance from station: NE 10km
Updated: 24/02/2024 22:50
NOT Current
Shallow fog, Few clouds
Shallow fog, Few clouds
 Wind from calm
Wind: Calm
Temperature: 0°C
Dew Point: -1°C
Humidity: 93%
Barometer: 998 hPa
Summary: Shallow Fog
Clouds: Few Clouds
Visibility: 3 miles , 5 km
Cloud details: Few Clouds 1372 m
2024/02/24 22:50 EGMC 242250Z 00000KT 5000 MIFG FEW045 M00/M01 Q0998
EGLC - London City Airp, United Kingdom
Distance from station: W 37km
Updated: 25/02/2024 04:12
unable to load EGLC data RC=
unable to load EGLC data RC=
 
EGKB - Biggin Hill, United Kingdom
Distance from station: WSW 45km
Updated: 24/02/2024 21:20
NOT Current
Clear
Clear
 Wind from WSW
Wind: WSW 5 mph , 7 km/h
Temperature: 3°C
Wind Chill: 1°C
Dew Point: 2°C
Humidity: 93%
Barometer: 998 hPa
Summary: Clear
Visibility: greater than 7 miles , 10 km
2024/02/24 21:20 EGKB 242120Z 24004KT CAVOK 03/02 Q0998
 
EGSS - Stansted Airport, United Kingdom
Distance from station: NNW 48km
Updated: 25/02/2024 03:50
Freezing fog, Partly cloudy
Freezing fog, Partly cloudy
 Wind from SE
Wind: SE 1 mph , 2 km/h
Temperature: 0°C
Dew Point: -1°C
Humidity: 93%
Barometer: 997 hPa
Summary: Freezing Fog
Clouds: Partly cloudy
Visibility: 0 mile , 0 km
Cloud details: Partly cloudy 30 m
2024/02/25 03:50 EGSS 250350Z AUTO 13001KT 0050 R22/0750U FZFG SCT001 M00/M01 Q0997
EGKK - London/Gatwick A, United Kingdom
Distance from station: SW 67km
Updated: 25/02/2024 03:50
Freezing fog, Mostly cloudy
Freezing fog, Mostly cloudy
 Wind from ENE
Wind: ENE 5 mph , 7 km/h
Temperature: -2°C
Wind Chill: -6°C
Dew Point: -3°C
Humidity: 93%
Barometer: 998 hPa
Summary: Freezing Fog
Clouds: Mostly cloudy
Visibility: 0 mile , 1 km
Cloud details: Mostly cloudy 30 m
2024/02/25 03:50 EGKK 250350Z 07004KT 0800 R08R/0650D FZFG BKN001 M02/M03 Q0998
EGMD - Lydd Airport, United Kingdom
Distance from station: SSE 67km
Updated: 25/02/2024 03:50
Freezing fog, Overcast
Freezing fog, Overcast
 Wind from calm
Wind: Calm
Temperature: -1°C
Dew Point: -1°C
Humidity: 100%
Barometer: 998 hPa
Summary: Freezing Fog
Clouds: Overcast
Visibility: 0 mile , 1 km
Cloud details: Overcast 30 m
2024/02/25 03:50 EGMD 250350Z AUTO 00000KT 0550 FZFG OVC001/// M01/M01 Q0998
 
EGWU - Northolt Raf, United Kingdom
Distance from station: W 69km
Updated: 25/02/2024 03:50
Fog, Overcast
Fog, Overcast
 Wind from NNE
Wind: NNE 1 mph , 2 km/h
Temperature: 0°C
Dew Point: 0°C
Humidity: 100%
Barometer: 997 hPa
Summary: Fog
Clouds: Overcast
Visibility: 0 mile , 0 km
Cloud details: Overcast 30 m
2024/02/25 03:50 EGWU 250350Z AUTO 03001KT 0100 FG OVC001/// M00/M00 Q0997
EGLL - London/Heathrow, United Kingdom
Distance from station: W 72km
Updated: 25/02/2024 03:50
Freezing Fog
Freezing Fog
 Wind from N
Wind: N 2 mph , 4 km/h
Temperature: 0°C
Dew Point: 0°C
Humidity: 100%
Barometer: 997 hPa
Summary: Freezing Fog
Visibility: 0 mile , 0 km
2024/02/25 03:50 EGLL 250350Z 01002KT 0250 R27L/1200U FZFG VV/// 00/M00 Q0997
EGUW - Wattisham Raf, United Kingdom
Distance from station: NNE 72km
Updated: 25/02/2024 03:50
Fog, Mostly cloudy
Fog, Mostly cloudy
 Wind from WSW
Wind: WSW 2 mph , 4 km/h
Temperature: 2°C
Dew Point: 2°C
Humidity: 100%
Barometer: 997 hPa
Summary: Fog
Clouds: Mostly cloudy
Visibility: 0 mile , 0 km
Cloud details: Mostly cloudy 61 m
2024/02/25 03:50 EGUW 250350Z AUTO 24002KT 0150 FG BKN002/// 02/02 Q0997
 
EGGW - Luton Airport, United Kingdom
Distance from station: WNW 76km
Updated: 25/02/2024 03:50
Fog, Clear
Fog, Clear
 Wind from S
Wind: S 3 mph , 6 km/h
Temperature: 1°C
Dew Point: 1°C
Humidity: 100%
Barometer: 997 hPa
Summary: Fog
Clouds: Clear
Visibility: 1 mile , 1 km
2024/02/25 03:50 EGGW 250350Z AUTO 19003KT 0900 FG NCD 01/01 Q0997
EGSC - Cambridge, United Kingdom
Distance from station: NNW 81km
Updated: 23/02/2024 17:20
NOT Current
Few Clouds
Few Clouds
 Wind from W
Wind: W 8 mph , 13 km/h
Temperature: 6°C
Wind Chill: 3°C
Dew Point: 2°C
Humidity: 76%
Barometer: 987 hPa
Clouds: Few Clouds
Visibility: 6 miles , 10 km
Cloud details: Few Clouds 1219 m
2024/02/23 17:20 EGSC 231720Z 26007KT 9999 FEW040 06/02 Q0987